createdAt,value
2023-09-28T00:01:49.645Z,18.55
2023-09-28T00:04:51.420Z,18.63
2023-09-28T00:07:54.168Z,18.53
2023-09-28T00:10:58.191Z,18.54
2023-09-28T00:13:59.913Z,18.53
2023-09-28T00:17:04.720Z,18.44
2023-09-28T00:20:10.943Z,18.49
2023-09-28T00:23:14.001Z,18.53
2023-09-28T00:26:18.009Z,18.55
2023-09-28T00:29:20.710Z,18.57
2023-09-28T00:32:22.825Z,18.41
2023-09-28T00:35:26.628Z,18.37
2023-09-28T00:38:28.413Z,18.37
2023-09-28T00:41:32.401Z,18.45
2023-09-28T00:44:35.034Z,18.30
2023-09-28T00:47:39.718Z,18.21
2023-09-28T00:50:41.593Z,18.27
2023-09-28T00:53:44.435Z,18.29
2023-09-28T00:56:49.743Z,18.31
2023-09-28T00:59:51.670Z,18.30
2023-09-28T01:02:56.832Z,18.21
2023-09-28T01:05:59.541Z,18.13
2023-09-28T01:09:01.188Z,18.26
2023-09-28T01:12:08.598Z,18.28
2023-09-28T01:15:13.001Z,18.27
2023-09-28T01:18:17.465Z,18.26
2023-09-28T01:21:20.190Z,18.25
2023-09-28T01:24:23.257Z,18.36
2023-09-28T01:27:25.901Z,18.27
2023-09-28T01:30:29.081Z,18.21
2023-09-28T01:33:31.277Z,18.25
2023-09-28T01:36:34.022Z,18.23
2023-09-28T01:39:37.055Z,18.28
2023-09-28T01:42:39.684Z,18.14
2023-09-28T01:45:42.364Z,18.25
2023-09-28T01:48:44.059Z,18.15
2023-09-28T01:51:46.722Z,18.05
2023-09-28T01:54:50.744Z,18.26
2023-09-28T01:57:52.448Z,18.27
2023-09-28T02:00:55.108Z,18.24
2023-09-28T02:03:57.773Z,18.32
2023-09-28T02:06:59.784Z,18.12
2023-09-28T02:10:03.786Z,18.15
2023-09-28T02:13:06.822Z,18.19
2023-09-28T02:16:12.553Z,18.19
2023-09-28T02:19:15.377Z,18.12
2023-09-28T02:22:18.025Z,18.34
2023-09-28T02:25:23.414Z,18.29
2023-09-28T02:28:25.100Z,18.25
2023-09-28T02:31:28.945Z,18.23
2023-09-28T02:34:35.018Z,18.29
2023-09-28T02:37:37.955Z,18.23
2023-09-28T02:40:41.990Z,18.24
2023-09-28T02:43:44.654Z,18.16
2023-09-28T02:46:46.417Z,18.32
2023-09-28T02:49:49.608Z,18.29
2023-09-28T02:52:53.844Z,18.23
2023-09-28T02:55:58.436Z,18.25
2023-09-28T02:59:00.936Z,18.22
2023-09-28T03:02:03.998Z,18.26
2023-09-28T03:05:08.178Z,18.09
2023-09-28T03:08:11.365Z,18.19
2023-09-28T03:11:16.687Z,18.16
2023-09-28T03:14:20.349Z,18.03
2023-09-28T03:17:22.075Z,18.08
2023-09-28T03:20:26.303Z,17.98
2023-09-28T03:23:28.020Z,18.06
2023-09-28T03:26:32.470Z,18.04
2023-09-28T03:29:35.125Z,18.10
2023-09-28T03:32:37.427Z,17.92
2023-09-28T03:35:40.149Z,17.97
2023-09-28T03:38:42.777Z,18.00
2023-09-28T03:41:46.761Z,17.92
2023-09-28T03:44:49.400Z,17.85
2023-09-28T03:47:53.741Z,17.79
2023-09-28T03:50:56.441Z,17.81
2023-09-28T03:53:59.353Z,17.67
2023-09-28T03:57:03.593Z,17.68
2023-09-28T04:00:09.985Z,17.70
2023-09-28T04:03:12.937Z,17.69
2023-09-28T04:06:15.564Z,17.70
2023-09-28T04:09:18.204Z,17.71
2023-09-28T04:12:22.185Z,17.66
2023-09-28T04:15:24.910Z,17.74
2023-09-28T04:18:28.129Z,17.66
2023-09-28T04:21:30.862Z,17.66
2023-09-28T04:24:33.472Z,17.70
2023-09-28T04:27:37.645Z,17.59
2023-09-28T04:30:40.334Z,17.49
2023-09-28T04:33:42.953Z,17.59
2023-09-28T04:36:46.113Z,17.60
2023-09-28T04:39:48.767Z,17.62
2023-09-28T04:42:52.742Z,17.58
2023-09-28T04:45:55.396Z,17.40
2023-09-28T04:48:58.057Z,17.52
2023-09-28T04:52:00.833Z,17.38
2023-09-28T04:55:05.140Z,17.44
2023-09-28T04:58:11.436Z,17.49
2023-09-28T05:01:14.214Z,17.48
2023-09-28T05:04:17.258Z,17.53
2023-09-28T05:07:19.924Z,17.55
2023-09-28T05:10:22.546Z,17.74
2023-09-28T05:13:30.483Z,17.66
2023-09-28T05:16:33.230Z,17.55
2023-09-28T05:19:35.928Z,17.75
2023-09-28T05:22:38.759Z,17.81
2023-09-28T05:25:41.424Z,17.80
2023-09-28T05:28:45.482Z,17.80
2023-09-28T05:31:48.624Z,17.90
2023-09-28T05:34:51.475Z,17.58
2023-09-28T05:37:54.178Z,17.78
2023-09-28T05:40:57.661Z,17.75
2023-09-28T05:44:01.903Z,17.68
2023-09-28T05:47:04.599Z,17.63
2023-09-28T05:50:09.401Z,17.65
2023-09-28T05:53:12.133Z,17.76
2023-09-28T05:56:14.857Z,17.79
2023-09-28T05:59:18.900Z,17.81
2023-09-28T06:02:24.069Z,17.87
2023-09-28T06:05:27.321Z,17.98
2023-09-28T06:08:30.020Z,17.80
2023-09-28T06:11:32.733Z,17.91
2023-09-28T06:14:37.143Z,17.87
2023-09-28T06:17:39.927Z,17.94
2023-09-28T06:20:42.977Z,17.93
2023-09-28T06:23:45.706Z,17.83
2023-09-28T06:26:50.059Z,17.91
2023-09-28T06:29:55.178Z,17.99
2023-09-28T06:32:58.151Z,18.06
2023-09-28T06:36:00.778Z,17.94
2023-09-28T06:39:04.711Z,17.89
2023-09-28T06:42:20.782Z,17.85
2023-09-28T06:45:30.437Z,18.09
2023-09-28T06:48:34.499Z,18.13
2023-09-28T06:51:38.264Z,18.37
2023-09-28T06:54:40.926Z,18.38
2023-09-28T06:57:43.589Z,18.39
2023-09-28T07:00:47.867Z,18.37
2023-09-28T07:03:54.472Z,18.53
2023-09-28T07:06:57.346Z,18.45
2023-09-28T07:10:00.033Z,18.52
2023-09-28T07:13:04.076Z,18.74
2023-09-28T07:16:09.069Z,18.53
2023-09-28T07:19:11.810Z,18.55
2023-09-28T07:22:16.607Z,18.57
2023-09-28T07:25:20.310Z,18.71
2023-09-28T07:28:23.145Z,18.81
2023-09-28T07:31:28.427Z,18.82
2023-09-28T07:34:31.328Z,18.93
2023-09-28T07:37:34.380Z,18.89
2023-09-28T07:43:47.369Z,18.87
2023-09-28T07:46:51.561Z,18.80
2023-09-28T07:49:54.449Z,18.96
2023-09-28T07:52:57.186Z,18.99
2023-09-28T07:55:59.915Z,18.99
2023-09-28T07:59:02.608Z,18.92
2023-09-28T08:02:06.685Z,18.96
2023-09-28T08:05:09.874Z,19.06
2023-09-28T08:08:16.862Z,19.06
2023-09-28T08:11:20.971Z,19.09
2023-09-28T08:14:23.635Z,19.16
2023-09-28T08:17:27.694Z,19.11
2023-09-28T08:20:31.918Z,19.03
2023-09-28T08:23:34.788Z,19.07
2023-09-28T08:26:37.516Z,19.00
2023-09-28T08:29:40.143Z,19.10
2023-09-28T08:32:44.317Z,18.91
2023-09-28T08:35:49.087Z,19.04
2023-09-28T08:38:52.147Z,19.36
2023-09-28T08:41:56.764Z,19.76
2023-09-28T08:45:03.422Z,19.95
2023-09-28T08:48:12.708Z,20.05
2023-09-28T08:51:16.755Z,20.29
2023-09-28T08:54:20.632Z,20.52
2023-09-28T08:57:23.418Z,20.55
2023-09-28T09:00:27.292Z,20.59
2023-09-28T09:03:34.101Z,20.74
2023-09-28T09:06:38.103Z,20.78
2023-09-28T09:09:43.228Z,20.86
2023-09-28T09:12:45.900Z,21.05
2023-09-28T09:15:50.339Z,21.41
2023-09-28T09:18:55.354Z,21.64
2023-09-28T09:21:58.625Z,21.68
2023-09-28T09:25:01.541Z,21.72
2023-09-28T09:28:05.627Z,22.05
2023-09-28T09:31:08.399Z,22.32
2023-09-28T09:34:18.847Z,22.42
2023-09-28T09:37:21.586Z,22.70
2023-09-28T09:40:24.372Z,22.84
2023-09-28T09:43:27.034Z,22.77
2023-09-28T09:46:29.724Z,22.87
2023-09-28T09:49:35.155Z,23.09
2023-09-28T09:52:38.517Z,23.37
2023-09-28T09:55:47.610Z,23.39
2023-09-28T09:58:57.997Z,23.28
2023-09-28T10:02:03.139Z,23.57
2023-09-28T10:05:10.009Z,23.71
2023-09-28T10:08:13.439Z,24.40
2023-09-28T10:11:17.554Z,24.64
2023-09-28T10:14:22.644Z,25.13
2023-09-28T10:17:27.285Z,25.36
2023-09-28T10:20:31.966Z,25.39
2023-09-28T10:23:34.751Z,26.12
2023-09-28T10:26:39.809Z,26.32
2023-09-28T10:29:43.105Z,26.83
2023-09-28T10:32:46.776Z,27.70
2023-09-28T10:35:50.848Z,27.78
2023-09-28T10:39:08.410Z,27.82
2023-09-28T10:42:14.357Z,28.06
2023-09-28T10:45:28.292Z,28.37
2023-09-28T10:48:33.979Z,28.76
2023-09-28T10:51:38.160Z,28.27
2023-09-28T10:54:41.010Z,28.65
2023-09-28T10:57:44.206Z,28.99
2023-09-28T11:00:46.848Z,29.23
2023-09-28T11:03:51.509Z,28.75
2023-09-28T11:06:56.962Z,27.74
2023-09-28T11:10:00.044Z,28.66
2023-09-28T11:13:03.087Z,28.55
2023-09-28T11:16:05.956Z,29.03
2023-09-28T11:19:10.808Z,29.61
2023-09-28T11:22:16.985Z,29.77
2023-09-28T11:25:34.861Z,29.79
2023-09-28T11:28:42.699Z,30.10
2023-09-28T11:31:51.631Z,29.97
2023-09-28T11:34:55.726Z,29.45
2023-09-28T11:38:04.135Z,28.76
2023-09-28T11:41:07.026Z,29.19
2023-09-28T11:44:09.737Z,29.80
2023-09-28T11:47:12.436Z,29.83
2023-09-28T11:50:15.384Z,29.82
2023-09-28T11:53:19.579Z,30.25
2023-09-28T11:56:22.777Z,30.25
2023-09-28T11:59:25.551Z,30.07
2023-09-28T12:02:29.741Z,29.61
2023-09-28T12:05:34.618Z,29.52
2023-09-28T12:08:39.080Z,28.78
2023-09-28T12:11:42.979Z,28.09
2023-09-28T12:14:45.898Z,27.72
2023-09-28T12:17:48.636Z,27.45
2023-09-28T12:20:51.361Z,27.80
2023-09-28T12:23:57.144Z,28.12
2023-09-28T12:27:02.140Z,29.09
2023-09-28T12:30:06.083Z,29.27
2023-09-28T12:33:09.758Z,28.81
2023-09-28T12:36:12.513Z,28.91
2023-09-28T12:39:22.683Z,28.93
2023-09-28T12:42:26.009Z,28.73
2023-09-28T12:45:28.961Z,28.83
2023-09-28T12:48:31.637Z,28.90
2023-09-28T12:51:34.425Z,29.68
2023-09-28T12:54:38.706Z,29.86
2023-09-28T12:57:41.453Z,29.87
2023-09-28T13:00:45.949Z,29.55
2023-09-28T13:03:50.914Z,29.50
2023-09-28T13:06:54.054Z,29.18
2023-09-28T13:09:58.030Z,29.81
2023-09-28T13:13:01.579Z,29.71
2023-09-28T13:16:06.922Z,29.42
2023-09-28T13:19:12.904Z,29.18
2023-09-28T13:22:15.651Z,29.07
2023-09-28T13:25:19.688Z,28.16
2023-09-28T13:28:22.749Z,27.51
2023-09-28T13:31:26.172Z,27.16
2023-09-28T13:34:28.976Z,27.34
2023-09-28T13:37:31.883Z,27.07
2023-09-28T13:40:36.445Z,26.93
2023-09-28T13:43:39.788Z,26.58
2023-09-28T13:46:42.504Z,26.70
2023-09-28T13:49:45.241Z,26.82
2023-09-28T13:52:48.078Z,26.52
2023-09-28T13:55:53.492Z,26.34
2023-09-28T13:58:56.144Z,26.05
2023-09-28T14:01:59.748Z,25.85
2023-09-28T14:05:02.566Z,25.94
2023-09-28T14:08:05.881Z,25.68
2023-09-28T14:11:12.798Z,25.55
2023-09-28T14:14:16.241Z,25.69
2023-09-28T14:17:28.408Z,25.80
2023-09-28T14:20:40.749Z,25.68
2023-09-28T14:23:43.727Z,25.49
2023-09-28T14:26:47.783Z,25.58
2023-09-28T14:29:50.507Z,25.16
2023-09-28T14:32:53.608Z,25.11
2023-09-28T14:35:56.982Z,25.30
2023-09-28T14:39:00.257Z,25.39
2023-09-28T14:42:05.900Z,25.19
2023-09-28T14:45:10.297Z,25.14
2023-09-28T14:48:13.471Z,24.91
2023-09-28T14:51:17.643Z,24.69
2023-09-28T14:54:20.353Z,24.71
2023-09-28T14:57:25.313Z,24.77
2023-09-28T15:00:27.964Z,24.57
2023-09-28T15:03:32.048Z,24.44
2023-09-28T15:06:35.055Z,24.53
2023-09-28T15:09:38.018Z,24.50
2023-09-28T15:12:42.055Z,24.32
2023-09-28T15:15:44.789Z,24.26
2023-09-28T15:18:47.771Z,24.13
2023-09-28T15:21:50.851Z,24.09
2023-09-28T15:24:53.910Z,24.04
2023-09-28T15:27:57.939Z,23.83
2023-09-28T15:31:01.674Z,23.91
2023-09-28T15:34:04.521Z,23.76
2023-09-28T15:37:07.178Z,23.59
2023-09-28T15:40:10.577Z,23.51
2023-09-28T15:43:14.707Z,23.62
2023-09-28T15:46:21.747Z,23.61
2023-09-28T15:49:24.412Z,23.38
2023-09-28T15:52:27.044Z,23.36
2023-09-28T15:55:29.688Z,23.27
2023-09-28T15:58:34.730Z,23.18
2023-09-28T16:01:38.649Z,23.22
2023-09-28T16:04:41.320Z,23.15
2023-09-28T16:07:43.973Z,23.12
2023-09-28T16:10:47.499Z,23.01
2023-09-28T16:13:51.519Z,22.85
2023-09-28T16:16:54.184Z,22.91
2023-09-28T16:19:56.828Z,22.73
2023-09-28T16:22:59.452Z,22.81
2023-09-28T16:26:02.086Z,22.68
2023-09-28T16:29:06.312Z,22.61
2023-09-28T16:32:09.217Z,22.59
2023-09-28T16:35:12.183Z,22.42
2023-09-28T16:38:14.954Z,22.39
2023-09-28T16:41:18.334Z,22.34
2023-09-28T16:44:22.725Z,22.30
2023-09-28T16:47:25.453Z,22.21
2023-09-28T16:50:29.289Z,22.14
2023-09-28T16:53:32.107Z,22.13
2023-09-28T16:56:35.069Z,22.11
2023-09-28T16:59:39.210Z,21.95
2023-09-28T17:02:42.167Z,21.91
2023-09-28T17:05:45.068Z,21.82
2023-09-28T17:08:49.407Z,21.78
2023-09-28T17:11:52.250Z,21.81
2023-09-28T17:14:56.359Z,21.68
2023-09-28T17:18:10.124Z,21.63
2023-09-28T17:21:21.278Z,21.51
2023-09-28T17:24:24.029Z,21.49
2023-09-28T17:27:26.917Z,21.40
2023-09-28T17:30:31.134Z,21.23
2023-09-28T17:33:33.904Z,21.20
2023-09-28T17:36:36.705Z,21.11
2023-09-28T17:39:39.439Z,21.07
2023-09-28T17:42:42.198Z,20.98
2023-09-28T17:45:48.533Z,20.83
2023-09-28T17:48:51.560Z,20.89
2023-09-28T17:51:54.241Z,20.91
2023-09-28T17:54:58.576Z,20.84
2023-09-28T17:58:01.317Z,20.77
2023-09-28T18:01:05.522Z,20.70
2023-09-28T18:04:08.375Z,20.62
2023-09-28T18:07:11.293Z,20.53
2023-09-28T18:10:15.539Z,20.57
2023-09-28T18:13:18.284Z,20.57
2023-09-28T18:16:22.441Z,20.52
2023-09-28T18:19:25.205Z,20.46
2023-09-28T18:22:27.850Z,20.39
2023-09-28T18:25:30.548Z,20.38
2023-09-28T18:28:37.376Z,20.38
2023-09-28T18:31:41.847Z,20.36
2023-09-28T18:34:44.606Z,20.32
2023-09-28T18:37:47.759Z,20.24
2023-09-28T18:40:50.500Z,20.27
2023-09-28T18:43:53.620Z,20.28
2023-09-28T18:46:58.662Z,20.20
2023-09-28T18:50:01.423Z,20.20
2023-09-28T18:53:05.149Z,20.20
2023-09-28T18:56:09.383Z,20.18
2023-09-28T18:59:12.298Z,20.10
2023-09-28T19:02:16.513Z,20.06
2023-09-28T19:05:19.790Z,20.02
2023-09-28T19:08:23.662Z,19.97
2023-09-28T19:11:26.836Z,20.01
2023-09-28T19:14:29.643Z,19.98
2023-09-28T19:17:33.978Z,19.94
2023-09-28T19:20:36.810Z,19.90
2023-09-28T19:23:39.635Z,20.00
2023-09-28T19:26:42.428Z,19.91
2023-09-28T19:29:45.186Z,19.97
2023-09-28T19:32:49.368Z,19.98
2023-09-28T19:35:52.444Z,19.96
2023-09-28T19:38:55.191Z,20.02
2023-09-28T19:41:58.214Z,20.00
2023-09-28T19:45:00.886Z,20.07
2023-09-28T19:48:05.941Z,20.02
2023-09-28T19:51:09.834Z,19.92
2023-09-28T19:54:12.565Z,19.94
2023-09-28T19:57:15.234Z,19.94
2023-09-28T20:00:18.772Z,19.83
2023-09-28T20:03:22.885Z,19.92
2023-09-28T20:06:27.157Z,19.87
2023-09-28T20:09:32.306Z,19.80
2023-09-28T20:12:35.515Z,19.76
2023-09-28T20:15:38.337Z,19.65
2023-09-28T20:18:42.479Z,19.71
2023-09-28T20:21:45.240Z,19.67
2023-09-28T20:24:48.229Z,19.59
2023-09-28T20:27:50.894Z,19.58
2023-09-28T20:30:53.659Z,19.49
2023-09-28T20:33:57.951Z,19.54
2023-09-28T20:37:00.642Z,19.41
2023-09-28T20:40:03.501Z,19.45
2023-09-28T20:43:06.381Z,19.34
2023-09-28T20:46:15.836Z,19.41
2023-09-28T20:49:19.937Z,19.42
2023-09-28T20:52:22.657Z,19.29
2023-09-28T20:55:25.761Z,19.30
2023-09-28T20:58:28.556Z,19.25
2023-09-28T21:01:31.338Z,19.38
2023-09-28T21:04:35.867Z,19.41
2023-09-28T21:07:44.881Z,19.44
2023-09-28T21:10:48.466Z,19.42
2023-09-28T21:13:51.142Z,19.48
2023-09-28T21:16:53.882Z,19.52
2023-09-28T21:19:57.931Z,19.51
2023-09-28T21:23:00.635Z,19.60
2023-09-28T21:26:03.352Z,19.56
2023-09-28T21:29:06.212Z,19.44
2023-09-28T21:32:09.273Z,19.53
2023-09-28T21:35:13.354Z,19.61
2023-09-28T21:38:15.996Z,19.58
2023-09-28T21:41:18.832Z,19.57
2023-09-28T21:44:21.577Z,19.66
2023-09-28T21:47:24.318Z,19.69
2023-09-28T21:50:28.458Z,19.55
2023-09-28T21:53:31.377Z,19.57
2023-09-28T21:56:34.128Z,19.63
2023-09-28T21:59:36.931Z,19.59
2023-09-28T22:02:40.783Z,19.62
2023-09-28T22:05:45.298Z,19.42
2023-09-28T22:08:48.088Z,19.51
2023-09-28T22:11:53.078Z,19.54
2023-09-28T22:14:55.918Z,19.59
2023-09-28T22:17:58.750Z,19.66
2023-09-28T22:21:03.088Z,19.65
2023-09-28T22:24:07.920Z,19.55
2023-09-28T22:27:10.628Z,19.58
2023-09-28T22:30:13.720Z,19.59
2023-09-28T22:33:16.588Z,19.66
2023-09-28T22:36:20.729Z,19.53
2023-09-28T22:39:23.435Z,19.53
2023-09-28T22:42:26.157Z,19.50
2023-09-28T22:45:28.883Z,19.51
2023-09-28T22:48:31.561Z,19.59
2023-09-28T22:51:35.611Z,19.62
2023-09-28T22:54:39.231Z,19.59
2023-09-28T22:57:42.009Z,19.55
2023-09-28T23:00:44.754Z,19.43
2023-09-28T23:03:47.523Z,19.48
2023-09-28T23:06:51.627Z,19.43
2023-09-28T23:09:54.447Z,19.60
2023-09-28T23:12:57.280Z,19.50
2023-09-28T23:16:00.470Z,19.54
2023-09-28T23:19:03.896Z,19.49
2023-09-28T23:22:08.082Z,19.34
2023-09-28T23:25:14.275Z,19.32
2023-09-28T23:28:17.526Z,19.40
2023-09-28T23:31:20.458Z,19.39
2023-09-28T23:34:24.643Z,19.34
2023-09-28T23:37:28.873Z,19.41
2023-09-28T23:40:31.578Z,19.29
2023-09-28T23:43:35.032Z,19.38
2023-09-28T23:46:40.815Z,19.36
2023-09-28T23:49:43.646Z,19.39
2023-09-28T23:52:48.944Z,19.39
2023-09-28T23:55:51.631Z,19.36
2023-09-28T23:58:55.083Z,19.26
